sensor_id;sensor_type;location;lat;lon;timestamp;P1;durP1;ratioP1;P2;durP2;ratioP2
26951;SDS011;14507;52.418;13.398;2023-03-05T00:00:09;20.08;;;4.05;;
26951;SDS011;14507;52.418;13.398;2023-03-05T00:02:35;23.70;;;3.90;;
26951;SDS011;14507;52.418;13.398;2023-03-05T00:05:01;24.38;;;4.65;;
26951;SDS011;14507;52.418;13.398;2023-03-05T00:07:26;23.52;;;4.32;;
26951;SDS011;14507;52.418;13.398;2023-03-05T00:09:52;20.80;;;4.15;;
26951;SDS011;14507;52.418;13.398;2023-03-05T00:12:17;19.58;;;3.75;;
26951;SDS011;14507;52.418;13.398;2023-03-05T00:14:43;24.33;;;4.00;;
26951;SDS011;14507;52.418;13.398;2023-03-05T00:17:09;16.25;;;4.13;;
26951;SDS011;14507;52.418;13.398;2023-03-05T00:19:34;22.75;;;4.05;;
26951;SDS011;14507;52.418;13.398;2023-03-05T00:22:00;24.13;;;3.92;;
26951;SDS011;14507;52.418;13.398;2023-03-05T00:24:25;25.33;;;3.90;;
26951;SDS011;14507;52.418;13.398;2023-03-05T00:26:51;21.95;;;3.72;;
26951;SDS011;14507;52.418;13.398;2023-03-05T00:29:18;21.90;;;4.25;;
26951;SDS011;14507;52.418;13.398;2023-03-05T00:31:45;20.60;;;3.50;;
26951;SDS011;14507;52.418;13.398;2023-03-05T00:34:12;20.45;;;4.43;;
26951;SDS011;14507;52.418;13.398;2023-03-05T00:36:44;28.50;;;4.38;;
26951;SDS011;14507;52.418;13.398;2023-03-05T00:39:11;24.45;;;4.13;;
26951;SDS011;14507;52.418;13.398;2023-03-05T00:41:37;26.38;;;3.90;;
26951;SDS011;14507;52.418;13.398;2023-03-05T00:44:03;21.67;;;3.88;;
26951;SDS011;14507;52.418;13.398;2023-03-05T00:46:29;24.13;;;3.60;;
26951;SDS011;14507;52.418;13.398;2023-03-05T00:48:55;23.38;;;3.63;;
26951;SDS011;14507;52.418;13.398;2023-03-05T00:51:21;20.95;;;3.35;;
26951;SDS011;14507;52.418;13.398;2023-03-05T00:53:48;17.85;;;3.28;;
26951;SDS011;14507;52.418;13.398;2023-03-05T00:56:14;29.25;;;4.30;;
26951;SDS011;14507;52.418;13.398;2023-03-05T00:58:39;19.25;;;3.28;;
26951;SDS011;14507;52.418;13.398;2023-03-05T01:01:05;21.33;;;3.63;;
26951;SDS011;14507;52.418;13.398;2023-03-05T01:03:31;22.75;;;3.28;;
26951;SDS011;14507;52.418;13.398;2023-03-05T01:05:58;22.20;;;3.70;;
26951;SDS011;14507;52.418;13.398;2023-03-05T01:08:24;21.08;;;3.75;;
26951;SDS011;14507;52.418;13.398;2023-03-05T01:10:50;20.42;;;2.72;;
26951;SDS011;14507;52.418;13.398;2023-03-05T01:13:16;21.02;;;3.42;;
26951;SDS011;14507;52.418;13.398;2023-03-05T01:15:42;19.77;;;3.15;;
26951;SDS011;14507;52.418;13.398;2023-03-05T01:18:08;22.33;;;3.03;;
26951;SDS011;14507;52.418;13.398;2023-03-05T01:20:33;12.10;;;2.53;;
26951;SDS011;14507;52.418;13.398;2023-03-05T01:22:59;21.80;;;3.20;;
26951;SDS011;14507;52.418;13.398;2023-03-05T01:25:26;23.00;;;3.20;;
26951;SDS011;14507;52.418;13.398;2023-03-05T01:27:52;22.15;;;2.67;;
26951;SDS011;14507;52.418;13.398;2023-03-05T01:30:18;20.00;;;2.72;;
26951;SDS011;14507;52.418;13.398;2023-03-05T01:32:44;15.93;;;2.25;;
26951;SDS011;14507;52.418;13.398;2023-03-05T01:35:15;17.00;;;3.03;;
26951;SDS011;14507;52.418;13.398;2023-03-05T01:37:42;19.63;;;2.45;;
26951;SDS011;14507;52.418;13.398;2023-03-05T01:40:09;19.55;;;2.80;;
26951;SDS011;14507;52.418;13.398;2023-03-05T01:42:36;13.13;;;2.33;;
26951;SDS011;14507;52.418;13.398;2023-03-05T01:45:09;16.83;;;2.50;;
26951;SDS011;14507;52.418;13.398;2023-03-05T01:47:39;9.73;;;2.38;;
26951;SDS011;14507;52.418;13.398;2023-03-05T01:50:06;19.48;;;2.58;;
26951;SDS011;14507;52.418;13.398;2023-03-05T01:52:34;10.50;;;2.28;;
26951;SDS011;14507;52.418;13.398;2023-03-05T01:55:14;17.77;;;2.38;;
26951;SDS011;14507;52.418;13.398;2023-03-05T01:57:44;27.95;;;3.35;;
26951;SDS011;14507;52.418;13.398;2023-03-05T02:00:14;11.90;;;2.30;;
26951;SDS011;14507;52.418;13.398;2023-03-05T02:02:43;13.80;;;2.83;;
26951;SDS011;14507;52.418;13.398;2023-03-05T02:05:12;15.43;;;2.38;;
26951;SDS011;14507;52.418;13.398;2023-03-05T02:08:01;13.80;;;2.33;;
26951;SDS011;14507;52.418;13.398;2023-03-05T02:13:04;14.05;;;2.33;;
26951;SDS011;14507;52.418;13.398;2023-03-05T02:15:32;17.42;;;3.20;;
26951;SDS011;14507;52.418;13.398;2023-03-05T02:17:58;16.30;;;2.40;;
26951;SDS011;14507;52.418;13.398;2023-03-05T02:20:27;15.90;;;2.00;;
26951;SDS011;14507;52.418;13.398;2023-03-05T02:22:54;11.88;;;2.28;;
26951;SDS011;14507;52.418;13.398;2023-03-05T02:25:21;15.07;;;2.40;;
26951;SDS011;14507;52.418;13.398;2023-03-05T02:28:02;11.05;;;2.10;;
26951;SDS011;14507;52.418;13.398;2023-03-05T02:30:37;10.70;;;2.17;;
26951;SDS011;14507;52.418;13.398;2023-03-05T02:33:03;15.80;;;2.05;;
26951;SDS011;14507;52.418;13.398;2023-03-05T02:35:29;9.25;;;2.10;;
26951;SDS011;14507;52.418;13.398;2023-03-05T02:37:56;15.05;;;2.40;;
26951;SDS011;14507;52.418;13.398;2023-03-05T02:40:22;15.13;;;2.22;;
26951;SDS011;14507;52.418;13.398;2023-03-05T02:42:47;11.10;;;2.00;;
26951;SDS011;14507;52.418;13.398;2023-03-05T02:45:13;7.18;;;2.20;;
26951;SDS011;14507;52.418;13.398;2023-03-05T02:47:39;9.68;;;1.77;;
26951;SDS011;14507;52.418;13.398;2023-03-05T02:50:05;13.50;;;2.38;;
26951;SDS011;14507;52.418;13.398;2023-03-05T02:52:31;14.90;;;1.90;;
26951;SDS011;14507;52.418;13.398;2023-03-05T02:54:57;9.60;;;2.30;;
26951;SDS011;14507;52.418;13.398;2023-03-05T02:57:23;17.33;;;2.22;;
26951;SDS011;14507;52.418;13.398;2023-03-05T02:59:49;15.80;;;2.15;;
26951;SDS011;14507;52.418;13.398;2023-03-05T03:02:15;9.75;;;2.00;;
26951;SDS011;14507;52.418;13.398;2023-03-05T03:04:41;9.40;;;1.83;;
26951;SDS011;14507;52.418;13.398;2023-03-05T03:07:08;9.40;;;2.00;;
26951;SDS011;14507;52.418;13.398;2023-03-05T03:09:34;9.57;;;1.80;;
26951;SDS011;14507;52.418;13.398;2023-03-05T03:12:00;12.50;;;2.30;;
26951;SDS011;14507;52.418;13.398;2023-03-05T03:14:29;8.73;;;2.05;;
26951;SDS011;14507;52.418;13.398;2023-03-05T03:16:56;10.52;;;1.90;;
26951;SDS011;14507;52.418;13.398;2023-03-05T03:19:22;13.68;;;2.58;;
26951;SDS011;14507;52.418;13.398;2023-03-05T03:21:48;11.20;;;1.88;;
26951;SDS011;14507;52.418;13.398;2023-03-05T03:24:14;13.52;;;2.50;;
26951;SDS011;14507;52.418;13.398;2023-03-05T03:26:40;14.35;;;2.47;;
26951;SDS011;14507;52.418;13.398;2023-03-05T03:29:06;10.38;;;2.05;;
26951;SDS011;14507;52.418;13.398;2023-03-05T03:31:31;9.38;;;2.15;;
26951;SDS011;14507;52.418;13.398;2023-03-05T03:33:57;10.63;;;2.20;;
26951;SDS011;14507;52.418;13.398;2023-03-05T03:36:22;9.00;;;2.15;;
26951;SDS011;14507;52.418;13.398;2023-03-05T03:38:48;9.55;;;2.20;;
26951;SDS011;14507;52.418;13.398;2023-03-05T03:41:15;13.18;;;1.83;;
26951;SDS011;14507;52.418;13.398;2023-03-05T03:43:42;9.65;;;2.10;;
26951;SDS011;14507;52.418;13.398;2023-03-05T03:46:08;10.10;;;1.70;;
26951;SDS011;14507;52.418;13.398;2023-03-05T03:48:34;9.65;;;1.88;;
26951;SDS011;14507;52.418;13.398;2023-03-05T03:51:02;14.52;;;2.60;;
26951;SDS011;14507;52.418;13.398;2023-03-05T03:53:28;7.38;;;1.63;;
26951;SDS011;14507;52.418;13.398;2023-03-05T03:55:56;9.48;;;2.30;;
26951;SDS011;14507;52.418;13.398;2023-03-05T03:58:23;12.60;;;2.15;;
26951;SDS011;14507;52.418;13.398;2023-03-05T04:00:49;9.82;;;2.10;;
26951;SDS011;14507;52.418;13.398;2023-03-05T04:03:14;11.77;;;2.05;;
26951;SDS011;14507;52.418;13.398;2023-03-05T04:05:40;10.75;;;1.90;;
26951;SDS011;14507;52.418;13.398;2023-03-05T04:08:06;10.52;;;1.80;;
26951;SDS011;14507;52.418;13.398;2023-03-05T04:10:36;9.02;;;1.70;;
26951;SDS011;14507;52.418;13.398;2023-03-05T04:13:03;9.77;;;1.83;;
26951;SDS011;14507;52.418;13.398;2023-03-05T04:15:29;14.75;;;1.85;;
26951;SDS011;14507;52.418;13.398;2023-03-05T04:17:56;14.80;;;1.85;;
26951;SDS011;14507;52.418;13.398;2023-03-05T04:20:21;10.18;;;1.83;;
26951;SDS011;14507;52.418;13.398;2023-03-05T04:22:47;10.30;;;2.13;;
26951;SDS011;14507;52.418;13.398;2023-03-05T04:25:13;12.68;;;2.28;;
26951;SDS011;14507;52.418;13.398;2023-03-05T04:27:38;12.50;;;1.85;;
26951;SDS011;14507;52.418;13.398;2023-03-05T04:30:04;9.95;;;2.17;;
26951;SDS011;14507;52.418;13.398;2023-03-05T04:32:31;9.13;;;1.80;;
26951;SDS011;14507;52.418;13.398;2023-03-05T04:34:57;8.82;;;2.28;;
26951;SDS011;14507;52.418;13.398;2023-03-05T04:37:23;10.07;;;2.58;;
26951;SDS011;14507;52.418;13.398;2023-03-05T04:39:50;17.25;;;2.45;;
26951;SDS011;14507;52.418;13.398;2023-03-05T04:42:16;12.02;;;1.92;;
26951;SDS011;14507;52.418;13.398;2023-03-05T04:44:44;13.13;;;2.00;;
26951;SDS011;14507;52.418;13.398;2023-03-05T04:47:10;13.98;;;2.42;;
26951;SDS011;14507;52.418;13.398;2023-03-05T04:49:35;10.93;;;1.92;;
26951;SDS011;14507;52.418;13.398;2023-03-05T04:52:01;10.65;;;2.08;;
26951;SDS011;14507;52.418;13.398;2023-03-05T04:54:27;10.38;;;2.25;;
26951;SDS011;14507;52.418;13.398;2023-03-05T04:56:52;8.77;;;2.55;;
26951;SDS011;14507;52.418;13.398;2023-03-05T04:59:18;11.50;;;2.10;;
26951;SDS011;14507;52.418;13.398;2023-03-05T05:01:44;16.33;;;1.70;;
26951;SDS011;14507;52.418;13.398;2023-03-05T05:04:09;10.27;;;1.77;;
26951;SDS011;14507;52.418;13.398;2023-03-05T05:06:35;6.95;;;1.95;;
26951;SDS011;14507;52.418;13.398;2023-03-05T05:09:00;15.15;;;2.33;;
26951;SDS011;14507;52.418;13.398;2023-03-05T05:11:26;12.32;;;2.42;;
26951;SDS011;14507;52.418;13.398;2023-03-05T05:13:52;10.18;;;1.40;;
26951;SDS011;14507;52.418;13.398;2023-03-05T05:16:17;8.32;;;1.95;;
26951;SDS011;14507;52.418;13.398;2023-03-05T05:18:43;8.07;;;1.90;;
26951;SDS011;14507;52.418;13.398;2023-03-05T05:21:09;13.65;;;1.98;;
26951;SDS011;14507;52.418;13.398;2023-03-05T05:23:36;15.00;;;2.70;;
26951;SDS011;14507;52.418;13.398;2023-03-05T05:26:03;9.02;;;2.20;;
26951;SDS011;14507;52.418;13.398;2023-03-05T05:28:30;8.65;;;2.22;;
26951;SDS011;14507;52.418;13.398;2023-03-05T05:30:56;13.98;;;1.98;;
26951;SDS011;14507;52.418;13.398;2023-03-05T05:33:22;5.45;;;1.77;;
26951;SDS011;14507;52.418;13.398;2023-03-05T05:35:48;6.60;;;1.90;;
26951;SDS011;14507;52.418;13.398;2023-03-05T05:38:14;10.75;;;2.08;;
26951;SDS011;14507;52.418;13.398;2023-03-05T05:40:39;9.50;;;2.25;;
26951;SDS011;14507;52.418;13.398;2023-03-05T05:43:05;11.05;;;2.58;;
26951;SDS011;14507;52.418;13.398;2023-03-05T05:45:31;11.25;;;2.10;;
26951;SDS011;14507;52.418;13.398;2023-03-05T05:47:57;5.70;;;1.80;;
26951;SDS011;14507;52.418;13.398;2023-03-05T05:50:22;13.13;;;2.72;;
26951;SDS011;14507;52.418;13.398;2023-03-05T05:52:49;10.82;;;2.20;;
26951;SDS011;14507;52.418;13.398;2023-03-05T05:55:15;12.07;;;2.08;;
26951;SDS011;14507;52.418;13.398;2023-03-05T05:57:41;8.60;;;1.85;;
26951;SDS011;14507;52.418;13.398;2023-03-05T06:00:08;10.90;;;2.17;;
26951;SDS011;14507;52.418;13.398;2023-03-05T06:02:39;11.18;;;1.95;;
26951;SDS011;14507;52.418;13.398;2023-03-05T06:05:06;10.73;;;1.95;;
26951;SDS011;14507;52.418;13.398;2023-03-05T06:07:34;16.45;;;2.50;;
26951;SDS011;14507;52.418;13.398;2023-03-05T06:10:00;13.88;;;2.20;;
26951;SDS011;14507;52.418;13.398;2023-03-05T06:12:27;13.77;;;2.58;;
26951;SDS011;14507;52.418;13.398;2023-03-05T06:14:53;18.00;;;2.50;;
26951;SDS011;14507;52.418;13.398;2023-03-05T06:17:18;12.65;;;2.17;;
26951;SDS011;14507;52.418;13.398;2023-03-05T06:19:44;14.25;;;2.00;;
26951;SDS011;14507;52.418;13.398;2023-03-05T06:22:10;14.45;;;2.17;;
26951;SDS011;14507;52.418;13.398;2023-03-05T06:24:36;18.70;;;2.83;;
26951;SDS011;14507;52.418;13.398;2023-03-05T06:27:03;10.35;;;2.70;;
26951;SDS011;14507;52.418;13.398;2023-03-05T06:29:29;9.68;;;2.15;;
26951;SDS011;14507;52.418;13.398;2023-03-05T06:31:55;9.70;;;2.22;;
26951;SDS011;14507;52.418;13.398;2023-03-05T06:34:20;17.73;;;2.10;;
26951;SDS011;14507;52.418;13.398;2023-03-05T06:36:46;11.27;;;2.10;;
26951;SDS011;14507;52.418;13.398;2023-03-05T06:39:12;17.83;;;2.40;;
26951;SDS011;14507;52.418;13.398;2023-03-05T06:41:38;11.40;;;2.40;;
26951;SDS011;14507;52.418;13.398;2023-03-05T06:44:03;11.25;;;2.17;;
26951;SDS011;14507;52.418;13.398;2023-03-05T06:46:30;8.18;;;2.60;;
26951;SDS011;14507;52.418;13.398;2023-03-05T06:48:59;13.73;;;2.63;;
26951;SDS011;14507;52.418;13.398;2023-03-05T06:51:30;10.90;;;2.30;;
26951;SDS011;14507;52.418;13.398;2023-03-05T06:54:01;17.42;;;2.53;;
26951;SDS011;14507;52.418;13.398;2023-03-05T06:56:38;10.57;;;2.20;;
26951;SDS011;14507;52.418;13.398;2023-03-05T06:59:05;12.90;;;2.10;;
26951;SDS011;14507;52.418;13.398;2023-03-05T07:01:31;15.80;;;2.28;;
26951;SDS011;14507;52.418;13.398;2023-03-05T07:03:57;10.38;;;2.30;;
26951;SDS011;14507;52.418;13.398;2023-03-05T07:06:24;9.25;;;1.80;;
26951;SDS011;14507;52.418;13.398;2023-03-05T07:08:56;10.57;;;2.35;;
26951;SDS011;14507;52.418;13.398;2023-03-05T07:11:25;7.93;;;1.77;;
26951;SDS011;14507;52.418;13.398;2023-03-05T07:13:50;10.25;;;2.10;;
26951;SDS011;14507;52.418;13.398;2023-03-05T07:16:23;13.05;;;2.00;;
26951;SDS011;14507;52.418;13.398;2023-03-05T07:18:50;7.03;;;1.50;;
26951;SDS011;14507;52.418;13.398;2023-03-05T07:21:18;8.50;;;1.63;;
26951;SDS011;14507;52.418;13.398;2023-03-05T07:23:45;9.45;;;2.00;;
26951;SDS011;14507;52.418;13.398;2023-03-05T07:26:11;11.60;;;2.38;;
26951;SDS011;14507;52.418;13.398;2023-03-05T07:28:37;8.10;;;1.85;;
26951;SDS011;14507;52.418;13.398;2023-03-05T07:31:04;9.43;;;1.75;;
26951;SDS011;14507;52.418;13.398;2023-03-05T07:33:41;9.07;;;1.88;;
26951;SDS011;14507;52.418;13.398;2023-03-05T07:36:07;9.13;;;1.67;;
26951;SDS011;14507;52.418;13.398;2023-03-05T07:38:34;14.90;;;2.72;;
26951;SDS011;14507;52.418;13.398;2023-03-05T07:41:01;6.88;;;1.55;;
26951;SDS011;14507;52.418;13.398;2023-03-05T07:43:31;6.32;;;1.77;;
26951;SDS011;14507;52.418;13.398;2023-03-05T07:45:57;8.18;;;1.77;;
26951;SDS011;14507;52.418;13.398;2023-03-05T07:48:23;5.75;;;1.45;;
26951;SDS011;14507;52.418;13.398;2023-03-05T07:50:49;7.63;;;2.30;;
26951;SDS011;14507;52.418;13.398;2023-03-05T07:53:23;15.43;;;1.77;;
26951;SDS011;14507;52.418;13.398;2023-03-05T07:55:49;10.50;;;1.63;;
26951;SDS011;14507;52.418;13.398;2023-03-05T07:58:14;6.68;;;1.60;;
26951;SDS011;14507;52.418;13.398;2023-03-05T08:00:40;12.05;;;2.53;;
26951;SDS011;14507;52.418;13.398;2023-03-05T08:03:06;12.52;;;2.13;;
26951;SDS011;14507;52.418;13.398;2023-03-05T08:05:32;12.90;;;2.08;;
26951;SDS011;14507;52.418;13.398;2023-03-05T08:07:57;11.85;;;2.13;;
26951;SDS011;14507;52.418;13.398;2023-03-05T08:10:23;5.47;;;1.55;;
26951;SDS011;14507;52.418;13.398;2023-03-05T08:12:49;6.68;;;1.65;;
26951;SDS011;14507;52.418;13.398;2023-03-05T08:15:15;10.30;;;1.98;;
26951;SDS011;14507;52.418;13.398;2023-03-05T08:17:40;8.93;;;1.77;;
26951;SDS011;14507;52.418;13.398;2023-03-05T08:20:06;5.90;;;1.50;;
26951;SDS011;14507;52.418;13.398;2023-03-05T08:22:35;6.43;;;1.60;;
26951;SDS011;14507;52.418;13.398;2023-03-05T08:25:01;6.80;;;1.70;;
26951;SDS011;14507;52.418;13.398;2023-03-05T08:27:28;9.88;;;1.50;;
26951;SDS011;14507;52.418;13.398;2023-03-05T08:29:54;5.80;;;1.27;;
26951;SDS011;14507;52.418;13.398;2023-03-05T08:32:19;7.60;;;1.85;;
26951;SDS011;14507;52.418;13.398;2023-03-05T08:34:45;7.88;;;1.60;;
26951;SDS011;14507;52.418;13.398;2023-03-05T08:37:11;7.18;;;1.60;;
26951;SDS011;14507;52.418;13.398;2023-03-05T08:39:36;6.03;;;1.27;;
26951;SDS011;14507;52.418;13.398;2023-03-05T08:42:02;7.70;;;1.48;;
26951;SDS011;14507;52.418;13.398;2023-03-05T08:44:29;6.25;;;1.10;;
26951;SDS011;14507;52.418;13.398;2023-03-05T08:46:55;7.50;;;1.40;;
26951;SDS011;14507;52.418;13.398;2023-03-05T08:49:21;4.85;;;1.50;;
26951;SDS011;14507;52.418;13.398;2023-03-05T08:51:46;4.03;;;1.40;;
26951;SDS011;14507;52.418;13.398;2023-03-05T08:54:12;6.07;;;1.48;;
26951;SDS011;14507;52.418;13.398;2023-03-05T08:56:37;8.13;;;1.50;;
26951;SDS011;14507;52.418;13.398;2023-03-05T08:59:03;3.55;;;1.30;;
26951;SDS011;14507;52.418;13.398;2023-03-05T09:01:29;6.63;;;1.20;;
26951;SDS011;14507;52.418;13.398;2023-03-05T09:03:56;8.88;;;1.58;;
26951;SDS011;14507;52.418;13.398;2023-03-05T09:06:23;8.00;;;1.92;;
26951;SDS011;14507;52.418;13.398;2023-03-05T09:08:49;8.10;;;1.38;;
26951;SDS011;14507;52.418;13.398;2023-03-05T09:11:15;10.13;;;1.55;;
26951;SDS011;14507;52.418;13.398;2023-03-05T09:13:41;4.72;;;1.27;;
26951;SDS011;14507;52.418;13.398;2023-03-05T09:16:08;8.80;;;1.40;;
26951;SDS011;14507;52.418;13.398;2023-03-05T09:18:36;5.32;;;1.40;;
26951;SDS011;14507;52.418;13.398;2023-03-05T09:21:05;7.57;;;1.90;;
26951;SDS011;14507;52.418;13.398;2023-03-05T09:25:58;3.15;;;0.90;;
26951;SDS011;14507;52.418;13.398;2023-03-05T09:28:23;5.38;;;1.63;;
26951;SDS011;14507;52.418;13.398;2023-03-05T09:30:49;4.30;;;1.00;;
26951;SDS011;14507;52.418;13.398;2023-03-05T09:33:14;8.13;;;1.42;;
26951;SDS011;14507;52.418;13.398;2023-03-05T09:35:40;7.05;;;1.60;;
26951;SDS011;14507;52.418;13.398;2023-03-05T09:38:06;5.20;;;1.10;;
26951;SDS011;14507;52.418;13.398;2023-03-05T09:51:30;4.57;;;1.50;;
26951;SDS011;14507;52.418;13.398;2023-03-05T09:54:02;6.32;;;1.63;;
26951;SDS011;14507;52.418;13.398;2023-03-05T09:56:35;9.32;;;1.85;;
26951;SDS011;14507;52.418;13.398;2023-03-05T09:59:13;10.70;;;2.20;;
26951;SDS011;14507;52.418;13.398;2023-03-05T10:02:20;5.85;;;1.75;;
26951;SDS011;14507;52.418;13.398;2023-03-05T10:07:38;5.90;;;1.45;;
26951;SDS011;14507;52.418;13.398;2023-03-05T10:10:16;9.85;;;1.58;;
26951;SDS011;14507;52.418;13.398;2023-03-05T10:12:49;8.80;;;1.95;;
26951;SDS011;14507;52.418;13.398;2023-03-05T10:28:45;6.75;;;1.25;;
26951;SDS011;14507;52.418;13.398;2023-03-05T10:42:41;6.18;;;2.00;;
26951;SDS011;14507;52.418;13.398;2023-03-05T10:47:58;8.13;;;1.40;;
26951;SDS011;14507;52.418;13.398;2023-03-05T10:50:27;5.72;;;1.65;;
26951;SDS011;14507;52.418;13.398;2023-03-05T10:55:34;4.78;;;1.60;;
26951;SDS011;14507;52.418;13.398;2023-03-05T10:58:00;8.63;;;1.88;;
26951;SDS011;14507;52.418;13.398;2023-03-05T11:00:34;8.13;;;2.00;;
26951;SDS011;14507;52.418;13.398;2023-03-05T11:03:04;7.60;;;1.70;;
26951;SDS011;14507;52.418;13.398;2023-03-05T11:11:01;8.70;;;1.77;;
26951;SDS011;14507;52.418;13.398;2023-03-05T11:13:27;4.65;;;1.58;;
26951;SDS011;14507;52.418;13.398;2023-03-05T11:16:00;9.32;;;1.77;;
26951;SDS011;14507;52.418;13.398;2023-03-05T11:18:27;3.83;;;1.42;;
26951;SDS011;14507;52.418;13.398;2023-03-05T11:23:43;5.07;;;1.45;;
26951;SDS011;14507;52.418;13.398;2023-03-05T11:26:27;6.57;;;1.77;;
26951;SDS011;14507;52.418;13.398;2023-03-05T11:31:19;8.00;;;1.50;;
26951;SDS011;14507;52.418;13.398;2023-03-05T11:33:56;4.95;;;1.60;;
26951;SDS011;14507;52.418;13.398;2023-03-05T11:36:27;6.80;;;1.90;;
26951;SDS011;14507;52.418;13.398;2023-03-05T11:41:33;6.75;;;1.77;;
26951;SDS011;14507;52.418;13.398;2023-03-05T11:44:09;7.00;;;1.92;;
26951;SDS011;14507;52.418;13.398;2023-03-05T11:49:42;12.23;;;2.15;;
26951;SDS011;14507;52.418;13.398;2023-03-05T11:52:11;7.97;;;1.83;;
26951;SDS011;14507;52.418;13.398;2023-03-05T11:57:34;6.63;;;1.92;;
26951;SDS011;14507;52.418;13.398;2023-03-05T12:00:10;7.78;;;1.90;;
26951;SDS011;14507;52.418;13.398;2023-03-05T12:02:40;6.28;;;1.55;;
26951;SDS011;14507;52.418;13.398;2023-03-05T12:05:06;8.55;;;2.03;;
26951;SDS011;14507;52.418;13.398;2023-03-05T12:07:39;5.07;;;1.83;;
26951;SDS011;14507;52.418;13.398;2023-03-05T12:10:15;12.15;;;2.20;;
26951;SDS011;14507;52.418;13.398;2023-03-05T12:12:52;5.07;;;2.10;;
26951;SDS011;14507;52.418;13.398;2023-03-05T12:15:41;6.75;;;1.73;;
26951;SDS011;14507;52.418;13.398;2023-03-05T12:21:13;7.82;;;2.30;;
26951;SDS011;14507;52.418;13.398;2023-03-05T12:23:55;6.38;;;2.42;;
26951;SDS011;14507;52.418;13.398;2023-03-05T12:29:49;6.32;;;2.20;;
26951;SDS011;14507;52.418;13.398;2023-03-05T12:52:53;7.32;;;2.03;;
26951;SDS011;14507;52.418;13.398;2023-03-05T12:55:22;6.53;;;2.10;;
26951;SDS011;14507;52.418;13.398;2023-03-05T12:57:56;5.47;;;1.90;;
26951;SDS011;14507;52.418;13.398;2023-03-05T13:00:27;4.15;;;1.80;;
26951;SDS011;14507;52.418;13.398;2023-03-05T13:02:59;9.18;;;2.20;;
26951;SDS011;14507;52.418;13.398;2023-03-05T13:05:30;7.18;;;2.20;;
26951;SDS011;14507;52.418;13.398;2023-03-05T13:08:10;6.97;;;1.92;;
26951;SDS011;14507;52.418;13.398;2023-03-05T13:10:37;10.68;;;2.10;;
26951;SDS011;14507;52.418;13.398;2023-03-05T13:13:03;9.52;;;2.10;;
26951;SDS011;14507;52.418;13.398;2023-03-05T13:15:29;5.47;;;1.70;;
26951;SDS011;14507;52.418;13.398;2023-03-05T13:17:57;11.88;;;1.92;;
26951;SDS011;14507;52.418;13.398;2023-03-05T13:20:40;10.32;;;2.28;;
26951;SDS011;14507;52.418;13.398;2023-03-05T13:28:21;6.95;;;2.78;;
26951;SDS011;14507;52.418;13.398;2023-03-05T13:31:00;11.35;;;2.65;;
26951;SDS011;14507;52.418;13.398;2023-03-05T13:33:29;8.43;;;2.28;;
26951;SDS011;14507;52.418;13.398;2023-03-05T13:35:58;6.15;;;2.05;;
26951;SDS011;14507;52.418;13.398;2023-03-05T13:41:03;6.55;;;2.13;;
26951;SDS011;14507;52.418;13.398;2023-03-05T13:43:32;7.25;;;2.08;;
26951;SDS011;14507;52.418;13.398;2023-03-05T13:45:57;5.68;;;1.60;;
26951;SDS011;14507;52.418;13.398;2023-03-05T13:48:24;6.75;;;1.80;;
26951;SDS011;14507;52.418;13.398;2023-03-05T13:50:52;6.63;;;1.70;;
26951;SDS011;14507;52.418;13.398;2023-03-05T13:53:24;7.30;;;2.22;;
26951;SDS011;14507;52.418;13.398;2023-03-05T13:55:56;4.97;;;2.28;;
26951;SDS011;14507;52.418;13.398;2023-03-05T13:58:46;6.82;;;2.38;;
26951;SDS011;14507;52.418;13.398;2023-03-05T14:03:57;7.38;;;1.90;;
26951;SDS011;14507;52.418;13.398;2023-03-05T14:06:28;7.43;;;1.90;;
26951;SDS011;14507;52.418;13.398;2023-03-05T14:09:05;5.57;;;1.48;;
26951;SDS011;14507;52.418;13.398;2023-03-05T14:11:52;8.95;;;1.90;;
26951;SDS011;14507;52.418;13.398;2023-03-05T14:14:18;6.75;;;1.60;;
26951;SDS011;14507;52.418;13.398;2023-03-05T14:16:46;5.82;;;1.60;;
26951;SDS011;14507;52.418;13.398;2023-03-05T14:19:30;5.88;;;1.85;;
26951;SDS011;14507;52.418;13.398;2023-03-05T14:22:00;7.68;;;2.00;;
26951;SDS011;14507;52.418;13.398;2023-03-05T14:24:27;9.40;;;2.22;;
26951;SDS011;14507;52.418;13.398;2023-03-05T14:26:56;6.95;;;1.58;;
26951;SDS011;14507;52.418;13.398;2023-03-05T14:29:24;6.80;;;1.90;;
26951;SDS011;14507;52.418;13.398;2023-03-05T14:31:56;7.53;;;1.88;;
26951;SDS011;14507;52.418;13.398;2023-03-05T14:36:58;7.63;;;1.90;;
26951;SDS011;14507;52.418;13.398;2023-03-05T14:42:20;4.68;;;1.70;;
26951;SDS011;14507;52.418;13.398;2023-03-05T14:44:57;7.85;;;1.70;;
26951;SDS011;14507;52.418;13.398;2023-03-05T14:47:25;9.75;;;1.77;;
26951;SDS011;14507;52.418;13.398;2023-03-05T14:49:51;7.75;;;2.03;;
26951;SDS011;14507;52.418;13.398;2023-03-05T14:52:17;8.63;;;2.10;;
26951;SDS011;14507;52.418;13.398;2023-03-05T14:54:44;8.07;;;2.15;;
26951;SDS011;14507;52.418;13.398;2023-03-05T14:57:15;7.28;;;1.90;;
26951;SDS011;14507;52.418;13.398;2023-03-05T14:59:46;5.53;;;1.85;;
26951;SDS011;14507;52.418;13.398;2023-03-05T15:02:16;5.60;;;2.08;;
26951;SDS011;14507;52.418;13.398;2023-03-05T15:04:45;7.03;;;2.53;;
26951;SDS011;14507;52.418;13.398;2023-03-05T15:07:22;5.28;;;1.67;;
26951;SDS011;14507;52.418;13.398;2023-03-05T15:09:55;8.10;;;1.70;;
26951;SDS011;14507;52.418;13.398;2023-03-05T15:12:22;6.63;;;1.67;;
26951;SDS011;14507;52.418;13.398;2023-03-05T15:14:51;4.72;;;1.60;;
26951;SDS011;14507;52.418;13.398;2023-03-05T15:19:47;8.07;;;1.77;;
26951;SDS011;14507;52.418;13.398;2023-03-05T15:22:13;6.15;;;1.70;;
26951;SDS011;14507;52.418;13.398;2023-03-05T15:24:40;4.22;;;1.95;;
26951;SDS011;14507;52.418;13.398;2023-03-05T15:27:06;6.55;;;1.65;;
26951;SDS011;14507;52.418;13.398;2023-03-05T15:29:32;4.28;;;1.75;;
26951;SDS011;14507;52.418;13.398;2023-03-05T15:31:58;4.30;;;1.98;;
26951;SDS011;14507;52.418;13.398;2023-03-05T15:34:25;4.05;;;1.65;;
26951;SDS011;14507;52.418;13.398;2023-03-05T15:36:51;6.25;;;1.70;;
26951;SDS011;14507;52.418;13.398;2023-03-05T15:39:17;7.10;;;2.00;;
26951;SDS011;14507;52.418;13.398;2023-03-05T15:41:42;6.60;;;2.10;;
26951;SDS011;14507;52.418;13.398;2023-03-05T15:44:08;8.00;;;2.05;;
26951;SDS011;14507;52.418;13.398;2023-03-05T15:46:34;6.53;;;2.35;;
26951;SDS011;14507;52.418;13.398;2023-03-05T15:48:59;8.30;;;2.40;;
26951;SDS011;14507;52.418;13.398;2023-03-05T15:51:26;5.75;;;1.90;;
26951;SDS011;14507;52.418;13.398;2023-03-05T15:53:52;8.30;;;2.30;;
26951;SDS011;14507;52.418;13.398;2023-03-05T15:56:18;6.55;;;1.70;;
26951;SDS011;14507;52.418;13.398;2023-03-05T15:58:44;6.40;;;1.60;;
26951;SDS011;14507;52.418;13.398;2023-03-05T16:01:12;4.53;;;1.75;;
26951;SDS011;14507;52.418;13.398;2023-03-05T16:03:39;7.13;;;1.95;;
26951;SDS011;14507;52.418;13.398;2023-03-05T16:06:05;4.78;;;1.83;;
26951;SDS011;14507;52.418;13.398;2023-03-05T16:08:32;3.53;;;1.70;;
26951;SDS011;14507;52.418;13.398;2023-03-05T16:10:59;8.00;;;2.33;;
26951;SDS011;14507;52.418;13.398;2023-03-05T16:13:25;12.35;;;2.03;;
26951;SDS011;14507;52.418;13.398;2023-03-05T16:15:53;8.52;;;2.60;;
26951;SDS011;14507;52.418;13.398;2023-03-05T16:18:19;8.70;;;2.47;;
26951;SDS011;14507;52.418;13.398;2023-03-05T16:20:47;6.18;;;2.13;;
26951;SDS011;14507;52.418;13.398;2023-03-05T16:23:13;5.85;;;1.90;;
26951;SDS011;14507;52.418;13.398;2023-03-05T16:25:38;7.68;;;1.80;;